YPPD/PHE METAR and TAF weather

Enter ICAO airport designator
Station Type Date Time Source
YPPD METAR 2019/09/21 05:00 UTC NOAA

YPPD 210500Z AUTO 10010KT 090V170 9999 // NCD 30/M10 Q1016


Station Type Date Time Source
YPPD Decoded METAR 2019/09/21 05:00 UTC NOAA

Port Hedland Pardoo, Australia (YPPD) 20-06S 119-34E 10M
Sep 21, 2019 - 01:00 AM EDT / 2019.09.21 0500 UTC
Wind: from the E (100 degrees) at 12 MPH (10 KT) (direction variable):0
Visibility: greater than 7 mile(s):0
Temperature: 86 F (30 C)
Dew Point: 14 F (-10 C)
Relative Humidity: 6%
Pressure (altimeter): 30.00 in. Hg (1016 hPa)
ob: YPPD 210500Z AUTO 10010KT 090V170 9999 // NCD 30/M10 Q1016
cycle: 5

Station Type Date Time Source
YPPD TAF 2019/09/20 18:37 UTC NOAA

TAF YPPD 201701Z 2018/2118 11014KT CAVOK
FM211000 13010KT CAVOK

Example: see airport list